sensor_id;sensor_type;location;lat;lon;timestamp;P1;durP1;ratioP1;P2;durP2;ratioP2
1336;SDS011;662;48.814;9.318;2022-07-29T00:01:20;6.70;;;6.20;;
1336;SDS011;662;48.814;9.318;2022-07-29T00:03:46;7.20;;;6.30;;
1336;SDS011;662;48.814;9.318;2022-07-29T00:06:13;8.43;;;6.73;;
1336;SDS011;662;48.814;9.318;2022-07-29T00:08:39;7.73;;;6.87;;
1336;SDS011;662;48.814;9.318;2022-07-29T00:11:04;8.43;;;7.30;;
1336;SDS011;662;48.814;9.318;2022-07-29T00:13:30;6.40;;;5.70;;
1336;SDS011;662;48.814;9.318;2022-07-29T00:15:56;7.40;;;6.73;;
1336;SDS011;662;48.814;9.318;2022-07-29T00:18:21;8.33;;;7.00;;
1336;SDS011;662;48.814;9.318;2022-07-29T00:20:47;7.10;;;6.40;;
1336;SDS011;662;48.814;9.318;2022-07-29T00:23:13;7.17;;;6.53;;
1336;SDS011;662;48.814;9.318;2022-07-29T00:25:38;7.20;;;6.60;;
1336;SDS011;662;48.814;9.318;2022-07-29T00:28:04;7.43;;;6.90;;
1336;SDS011;662;48.814;9.318;2022-07-29T00:30:29;8.30;;;7.67;;
1336;SDS011;662;48.814;9.318;2022-07-29T00:32:55;7.27;;;6.57;;
1336;SDS011;662;48.814;9.318;2022-07-29T00:35:21;14.30;;;9.20;;
1336;SDS011;662;48.814;9.318;2022-07-29T00:38:05;13.73;;;9.33;;
1336;SDS011;662;48.814;9.318;2022-07-29T00:40:30;13.70;;;8.07;;
1336;SDS011;662;48.814;9.318;2022-07-29T00:42:56;7.67;;;6.97;;
1336;SDS011;662;48.814;9.318;2022-07-29T00:45:21;7.53;;;6.83;;
1336;SDS011;662;48.814;9.318;2022-07-29T00:47:47;9.13;;;7.40;;
1336;SDS011;662;48.814;9.318;2022-07-29T00:50:14;14.00;;;10.60;;
1336;SDS011;662;48.814;9.318;2022-07-29T00:52:40;9.23;;;8.30;;
1336;SDS011;662;48.814;9.318;2022-07-29T00:55:08;8.10;;;7.40;;
1336;SDS011;662;48.814;9.318;2022-07-29T00:57:35;8.27;;;7.40;;
1336;SDS011;662;48.814;9.318;2022-07-29T01:00:05;8.40;;;6.80;;
1336;SDS011;662;48.814;9.318;2022-07-29T01:02:33;9.10;;;8.20;;
1336;SDS011;662;48.814;9.318;2022-07-29T01:04:59;7.73;;;7.10;;
1336;SDS011;662;48.814;9.318;2022-07-29T01:07:26;8.20;;;7.10;;
1336;SDS011;662;48.814;9.318;2022-07-29T01:09:53;7.40;;;6.80;;
1336;SDS011;662;48.814;9.318;2022-07-29T01:12:23;9.20;;;7.37;;
1336;SDS011;662;48.814;9.318;2022-07-29T01:14:50;10.27;;;9.27;;
1336;SDS011;662;48.814;9.318;2022-07-29T01:19:51;7.47;;;6.87;;
1336;SDS011;662;48.814;9.318;2022-07-29T01:22:37;7.20;;;6.60;;
1336;SDS011;662;48.814;9.318;2022-07-29T01:31:40;7.53;;;6.83;;
1336;SDS011;662;48.814;9.318;2022-07-29T01:34:10;7.13;;;6.53;;
1336;SDS011;662;48.814;9.318;2022-07-29T01:36:50;8.53;;;7.93;;
1336;SDS011;662;48.814;9.318;2022-07-29T01:39:30;8.70;;;7.90;;
1336;SDS011;662;48.814;9.318;2022-07-29T01:42:05;7.60;;;6.90;;
1336;SDS011;662;48.814;9.318;2022-07-29T01:44:37;7.83;;;7.27;;
1336;SDS011;662;48.814;9.318;2022-07-29T01:47:17;7.93;;;7.13;;
1336;SDS011;662;48.814;9.318;2022-07-29T01:49:47;8.30;;;7.50;;
1336;SDS011;662;48.814;9.318;2022-07-29T01:52:20;8.13;;;7.43;;
1336;SDS011;662;48.814;9.318;2022-07-29T01:54:58;7.27;;;6.60;;
1336;SDS011;662;48.814;9.318;2022-07-29T01:57:30;8.17;;;7.40;;
1336;SDS011;662;48.814;9.318;2022-07-29T01:59:58;8.60;;;7.73;;
1336;SDS011;662;48.814;9.318;2022-07-29T02:02:26;8.20;;;7.60;;
1336;SDS011;662;48.814;9.318;2022-07-29T02:04:53;8.93;;;8.13;;
1336;SDS011;662;48.814;9.318;2022-07-29T02:07:21;8.37;;;7.57;;
1336;SDS011;662;48.814;9.318;2022-07-29T02:09:50;8.50;;;7.70;;
1336;SDS011;662;48.814;9.318;2022-07-29T02:12:17;9.63;;;8.73;;
1336;SDS011;662;48.814;9.318;2022-07-29T02:14:45;9.00;;;7.70;;
1336;SDS011;662;48.814;9.318;2022-07-29T02:17:16;8.57;;;7.77;;
1336;SDS011;662;48.814;9.318;2022-07-29T02:19:47;8.33;;;7.53;;
1336;SDS011;662;48.814;9.318;2022-07-29T02:22:13;8.93;;;8.13;;
1336;SDS011;662;48.814;9.318;2022-07-29T02:24:40;8.20;;;7.60;;
1336;SDS011;662;48.814;9.318;2022-07-29T02:27:07;8.50;;;7.80;;
1336;SDS011;662;48.814;9.318;2022-07-29T02:29:34;8.17;;;7.40;;
1336;SDS011;662;48.814;9.318;2022-07-29T02:32:02;8.63;;;7.80;;
1336;SDS011;662;48.814;9.318;2022-07-29T02:34:29;7.50;;;6.90;;
1336;SDS011;662;48.814;9.318;2022-07-29T02:36:55;8.77;;;8.13;;
1336;SDS011;662;48.814;9.318;2022-07-29T02:39:21;8.30;;;7.50;;
1336;SDS011;662;48.814;9.318;2022-07-29T02:41:54;7.87;;;7.17;;
1336;SDS011;662;48.814;9.318;2022-07-29T02:44:24;8.63;;;7.60;;
1336;SDS011;662;48.814;9.318;2022-07-29T02:46:59;7.83;;;7.13;;
1336;SDS011;662;48.814;9.318;2022-07-29T02:49:38;7.93;;;7.23;;
1336;SDS011;662;48.814;9.318;2022-07-29T02:52:16;8.50;;;7.80;;
1336;SDS011;662;48.814;9.318;2022-07-29T02:57:22;9.67;;;8.87;;
1336;SDS011;662;48.814;9.318;2022-07-29T02:59:52;9.83;;;8.23;;
1336;SDS011;662;48.814;9.318;2022-07-29T03:02:22;8.73;;;7.80;;
1336;SDS011;662;48.814;9.318;2022-07-29T03:04:49;9.40;;;8.57;;
1336;SDS011;662;48.814;9.318;2022-07-29T03:07:17;8.97;;;8.27;;
1336;SDS011;662;48.814;9.318;2022-07-29T03:09:45;7.77;;;7.17;;
1336;SDS011;662;48.814;9.318;2022-07-29T03:12:11;8.30;;;7.53;;
1336;SDS011;662;48.814;9.318;2022-07-29T03:14:38;9.00;;;8.10;;
1336;SDS011;662;48.814;9.318;2022-07-29T03:17:04;13.13;;;8.90;;
1336;SDS011;662;48.814;9.318;2022-07-29T03:19:30;9.00;;;8.30;;
1336;SDS011;662;48.814;9.318;2022-07-29T03:21:57;8.43;;;7.73;;
1336;SDS011;662;48.814;9.318;2022-07-29T03:24:34;10.17;;;9.27;;
1336;SDS011;662;48.814;9.318;2022-07-29T03:27:01;11.23;;;9.60;;
1336;SDS011;662;48.814;9.318;2022-07-29T03:29:28;19.70;;;14.40;;
1336;SDS011;662;48.814;9.318;2022-07-29T03:31:54;22.30;;;15.83;;
1336;SDS011;662;48.814;9.318;2022-07-29T03:34:20;9.50;;;8.60;;
1336;SDS011;662;48.814;9.318;2022-07-29T03:36:46;9.87;;;8.97;;
1336;SDS011;662;48.814;9.318;2022-07-29T03:39:12;8.93;;;8.23;;
1336;SDS011;662;48.814;9.318;2022-07-29T03:41:42;8.60;;;7.90;;
1336;SDS011;662;48.814;9.318;2022-07-29T03:44:10;9.33;;;8.67;;
1336;SDS011;662;48.814;9.318;2022-07-29T03:46:38;8.83;;;8.13;;
1336;SDS011;662;48.814;9.318;2022-07-29T03:49:06;8.23;;;7.53;;
1336;SDS011;662;48.814;9.318;2022-07-29T03:51:33;9.43;;;8.53;;
1336;SDS011;662;48.814;9.318;2022-07-29T03:54:01;9.50;;;8.80;;
1336;SDS011;662;48.814;9.318;2022-07-29T03:56:27;9.10;;;8.30;;
1336;SDS011;662;48.814;9.318;2022-07-29T03:58:54;8.70;;;8.00;;
1336;SDS011;662;48.814;9.318;2022-07-29T04:01:20;9.60;;;8.73;;
1336;SDS011;662;48.814;9.318;2022-07-29T04:03:47;9.03;;;8.33;;
1336;SDS011;662;48.814;9.318;2022-07-29T04:06:13;9.13;;;8.20;;
1336;SDS011;662;48.814;9.318;2022-07-29T04:08:39;9.20;;;8.37;;
1336;SDS011;662;48.814;9.318;2022-07-29T04:11:04;8.37;;;7.67;;
1336;SDS011;662;48.814;9.318;2022-07-29T04:13:31;8.90;;;8.10;;
1336;SDS011;662;48.814;9.318;2022-07-29T04:15:57;9.03;;;8.10;;
1336;SDS011;662;48.814;9.318;2022-07-29T04:18:23;8.97;;;8.20;;
1336;SDS011;662;48.814;9.318;2022-07-29T04:20:49;8.23;;;7.63;;
1336;SDS011;662;48.814;9.318;2022-07-29T04:23:15;8.10;;;7.50;;
1336;SDS011;662;48.814;9.318;2022-07-29T04:25:41;7.87;;;7.17;;
1336;SDS011;662;48.814;9.318;2022-07-29T04:28:07;8.30;;;7.60;;
1336;SDS011;662;48.814;9.318;2022-07-29T04:30:35;9.03;;;8.23;;
1336;SDS011;662;48.814;9.318;2022-07-29T04:33:02;7.20;;;6.50;;
1336;SDS011;662;48.814;9.318;2022-07-29T04:35:36;10.97;;;7.57;;
1336;SDS011;662;48.814;9.318;2022-07-29T04:38:02;9.37;;;7.80;;
1336;SDS011;662;48.814;9.318;2022-07-29T04:40:29;8.57;;;7.63;;
1336;SDS011;662;48.814;9.318;2022-07-29T04:42:55;8.43;;;7.70;;
1336;SDS011;662;48.814;9.318;2022-07-29T04:45:21;8.80;;;7.53;;
1336;SDS011;662;48.814;9.318;2022-07-29T04:47:47;8.00;;;7.20;;
1336;SDS011;662;48.814;9.318;2022-07-29T04:50:12;6.63;;;5.90;;
1336;SDS011;662;48.814;9.318;2022-07-29T04:52:38;7.57;;;6.87;;
1336;SDS011;662;48.814;9.318;2022-07-29T04:55:04;8.17;;;7.47;;
1336;SDS011;662;48.814;9.318;2022-07-29T04:57:36;10.10;;;6.80;;
1336;SDS011;662;48.814;9.318;2022-07-29T05:00:03;7.63;;;6.63;;
1336;SDS011;662;48.814;9.318;2022-07-29T05:02:30;7.30;;;6.80;;
1336;SDS011;662;48.814;9.318;2022-07-29T05:04:55;6.77;;;6.17;;
1336;SDS011;662;48.814;9.318;2022-07-29T05:07:21;6.93;;;6.33;;
1336;SDS011;662;48.814;9.318;2022-07-29T05:09:47;7.30;;;6.70;;
1336;SDS011;662;48.814;9.318;2022-07-29T05:12:12;6.97;;;6.47;;
1336;SDS011;662;48.814;9.318;2022-07-29T05:14:38;6.87;;;6.37;;
1336;SDS011;662;48.814;9.318;2022-07-29T05:17:09;7.00;;;6.40;;
1336;SDS011;662;48.814;9.318;2022-07-29T05:19:34;7.50;;;6.90;;
1336;SDS011;662;48.814;9.318;2022-07-29T05:22:00;7.60;;;6.33;;
1336;SDS011;662;48.814;9.318;2022-07-29T05:24:26;6.90;;;6.40;;
1336;SDS011;662;48.814;9.318;2022-07-29T05:26:51;7.73;;;7.03;;
1336;SDS011;662;48.814;9.318;2022-07-29T05:29:17;6.50;;;5.90;;
1336;SDS011;662;48.814;9.318;2022-07-29T05:31:43;6.40;;;5.83;;
1336;SDS011;662;48.814;9.318;2022-07-29T05:34:08;7.27;;;6.57;;
1336;SDS011;662;48.814;9.318;2022-07-29T05:36:34;7.00;;;6.50;;
1336;SDS011;662;48.814;9.318;2022-07-29T05:39:00;8.87;;;7.03;;
1336;SDS011;662;48.814;9.318;2022-07-29T05:41:25;7.53;;;6.93;;
1336;SDS011;662;48.814;9.318;2022-07-29T05:43:51;7.30;;;6.70;;
1336;SDS011;662;48.814;9.318;2022-07-29T05:46:17;7.60;;;7.00;;
1336;SDS011;662;48.814;9.318;2022-07-29T05:48:42;8.80;;;7.17;;
1336;SDS011;662;48.814;9.318;2022-07-29T05:51:08;7.23;;;6.53;;
1336;SDS011;662;48.814;9.318;2022-07-29T05:53:35;7.87;;;6.70;;
1336;SDS011;662;48.814;9.318;2022-07-29T05:56:06;6.40;;;5.80;;
1336;SDS011;662;48.814;9.318;2022-07-29T05:58:38;7.37;;;6.60;;
1336;SDS011;662;48.814;9.318;2022-07-29T06:01:06;6.93;;;6.30;;
1336;SDS011;662;48.814;9.318;2022-07-29T06:03:52;8.03;;;7.33;;
1336;SDS011;662;48.814;9.318;2022-07-29T06:06:28;8.13;;;7.53;;
1336;SDS011;662;48.814;9.318;2022-07-29T06:09:02;8.90;;;8.00;;
1336;SDS011;662;48.814;9.318;2022-07-29T06:11:32;9.10;;;8.30;;
1336;SDS011;662;48.814;9.318;2022-07-29T06:14:06;7.50;;;6.90;;
1336;SDS011;662;48.814;9.318;2022-07-29T06:16:38;7.27;;;6.77;;
1336;SDS011;662;48.814;9.318;2022-07-29T06:22:11;7.67;;;7.07;;
1336;SDS011;662;48.814;9.318;2022-07-29T06:24:53;5.70;;;5.30;;
1336;SDS011;662;48.814;9.318;2022-07-29T06:27:32;6.90;;;5.70;;
1336;SDS011;662;48.814;9.318;2022-07-29T06:30:08;6.33;;;5.80;;
1336;SDS011;662;48.814;9.318;2022-07-29T06:41:22;5.80;;;5.30;;
1336;SDS011;662;48.814;9.318;2022-07-29T06:43:49;6.00;;;5.50;;
1336;SDS011;662;48.814;9.318;2022-07-29T06:46:19;5.67;;;5.27;;
1336;SDS011;662;48.814;9.318;2022-07-29T06:48:51;5.47;;;5.00;;
1336;SDS011;662;48.814;9.318;2022-07-29T06:51:26;6.87;;;5.00;;
1336;SDS011;662;48.814;9.318;2022-07-29T06:56:42;5.73;;;5.23;;
1336;SDS011;662;48.814;9.318;2022-07-29T06:59:35;6.20;;;5.60;;
1336;SDS011;662;48.814;9.318;2022-07-29T07:02:13;5.43;;;4.93;;
1336;SDS011;662;48.814;9.318;2022-07-29T07:04:52;5.30;;;4.90;;
1336;SDS011;662;48.814;9.318;2022-07-29T07:07:30;5.07;;;4.67;;
1336;SDS011;662;48.814;9.318;2022-07-29T07:09:56;8.43;;;5.17;;
1336;SDS011;662;48.814;9.318;2022-07-29T07:12:22;4.77;;;4.37;;
1336;SDS011;662;48.814;9.318;2022-07-29T07:14:56;5.27;;;4.77;;
1336;SDS011;662;48.814;9.318;2022-07-29T07:17:28;6.90;;;5.30;;
1336;SDS011;662;48.814;9.318;2022-07-29T07:20:59;5.17;;;4.70;;
1336;SDS011;662;48.814;9.318;2022-07-29T07:23:31;5.30;;;4.90;;
1336;SDS011;662;48.814;9.318;2022-07-29T07:25:57;5.47;;;4.97;;
1336;SDS011;662;48.814;9.318;2022-07-29T07:28:42;5.20;;;4.70;;
1336;SDS011;662;48.814;9.318;2022-07-29T07:31:22;5.37;;;4.63;;
1336;SDS011;662;48.814;9.318;2022-07-29T07:33:54;4.33;;;4.03;;
1336;SDS011;662;48.814;9.318;2022-07-29T07:36:43;5.20;;;4.53;;
1336;SDS011;662;48.814;9.318;2022-07-29T07:39:12;5.00;;;4.60;;
1336;SDS011;662;48.814;9.318;2022-07-29T07:41:40;5.33;;;4.83;;
1336;SDS011;662;48.814;9.318;2022-07-29T07:44:10;4.80;;;4.40;;
1336;SDS011;662;48.814;9.318;2022-07-29T07:46:36;4.40;;;4.00;;
1336;SDS011;662;48.814;9.318;2022-07-29T07:49:01;6.00;;;4.40;;
1336;SDS011;662;48.814;9.318;2022-07-29T07:51:27;4.63;;;4.10;;
1336;SDS011;662;48.814;9.318;2022-07-29T07:53:53;4.50;;;4.20;;
1336;SDS011;662;48.814;9.318;2022-07-29T07:56:19;6.23;;;4.33;;
1336;SDS011;662;48.814;9.318;2022-07-29T07:58:44;4.30;;;3.90;;
1336;SDS011;662;48.814;9.318;2022-07-29T08:01:10;4.60;;;4.30;;
1336;SDS011;662;48.814;9.318;2022-07-29T08:03:35;4.37;;;3.97;;
1336;SDS011;662;48.814;9.318;2022-07-29T08:06:01;3.90;;;3.60;;
1336;SDS011;662;48.814;9.318;2022-07-29T08:08:28;4.43;;;4.13;;
1336;SDS011;662;48.814;9.318;2022-07-29T08:10:54;4.27;;;3.97;;
1336;SDS011;662;48.814;9.318;2022-07-29T08:13:24;4.50;;;4.20;;
1336;SDS011;662;48.814;9.318;2022-07-29T08:15:53;9.10;;;4.77;;
1336;SDS011;662;48.814;9.318;2022-07-29T08:18:22;4.90;;;4.40;;
1336;SDS011;662;48.814;9.318;2022-07-29T08:20:49;7.33;;;4.40;;
1336;SDS011;662;48.814;9.318;2022-07-29T08:23:15;4.80;;;4.40;;
1336;SDS011;662;48.814;9.318;2022-07-29T08:25:41;4.87;;;4.33;;
1336;SDS011;662;48.814;9.318;2022-07-29T08:28:07;10.50;;;4.00;;
1336;SDS011;662;48.814;9.318;2022-07-29T08:30:33;6.63;;;4.70;;
1336;SDS011;662;48.814;9.318;2022-07-29T08:32:59;5.80;;;4.47;;
1336;SDS011;662;48.814;9.318;2022-07-29T08:35:25;5.10;;;4.60;;
1336;SDS011;662;48.814;9.318;2022-07-29T08:37:52;5.27;;;4.67;;
1336;SDS011;662;48.814;9.318;2022-07-29T08:40:21;5.43;;;4.93;;
1336;SDS011;662;48.814;9.318;2022-07-29T08:42:48;4.90;;;4.20;;
1336;SDS011;662;48.814;9.318;2022-07-29T08:45:15;4.80;;;4.40;;
1336;SDS011;662;48.814;9.318;2022-07-29T08:47:41;6.33;;;4.50;;
1336;SDS011;662;48.814;9.318;2022-07-29T08:50:08;5.30;;;4.77;;
1336;SDS011;662;48.814;9.318;2022-07-29T08:52:37;4.70;;;4.40;;
1336;SDS011;662;48.814;9.318;2022-07-29T08:55:06;5.00;;;4.60;;
1336;SDS011;662;48.814;9.318;2022-07-29T08:57:33;5.73;;;5.23;;
1336;SDS011;662;48.814;9.318;2022-07-29T09:00:01;6.00;;;5.40;;
1336;SDS011;662;48.814;9.318;2022-07-29T09:02:29;4.50;;;4.10;;
1336;SDS011;662;48.814;9.318;2022-07-29T09:05:00;5.83;;;5.33;;
1336;SDS011;662;48.814;9.318;2022-07-29T09:07:27;5.60;;;5.20;;
1336;SDS011;662;48.814;9.318;2022-07-29T09:09:52;6.97;;;4.53;;
1336;SDS011;662;48.814;9.318;2022-07-29T09:12:18;5.97;;;5.47;;
1336;SDS011;662;48.814;9.318;2022-07-29T09:14:47;5.27;;;4.80;;
1336;SDS011;662;48.814;9.318;2022-07-29T09:17:13;5.10;;;4.70;;
1336;SDS011;662;48.814;9.318;2022-07-29T09:19:41;5.53;;;5.03;;
1336;SDS011;662;48.814;9.318;2022-07-29T09:22:07;5.50;;;5.10;;
1336;SDS011;662;48.814;9.318;2022-07-29T09:27:07;4.77;;;4.47;;
1336;SDS011;662;48.814;9.318;2022-07-29T09:29:34;5.23;;;4.67;;
1336;SDS011;662;48.814;9.318;2022-07-29T09:32:00;5.07;;;4.73;;
1336;SDS011;662;48.814;9.318;2022-07-29T09:34:30;5.97;;;5.27;;
1336;SDS011;662;48.814;9.318;2022-07-29T09:36:56;10.20;;;5.43;;
1336;SDS011;662;48.814;9.318;2022-07-29T09:42:00;6.20;;;5.40;;
1336;SDS011;662;48.814;9.318;2022-07-29T09:44:43;5.90;;;5.03;;
1336;SDS011;662;48.814;9.318;2022-07-29T09:47:10;8.60;;;5.60;;
1336;SDS011;662;48.814;9.318;2022-07-29T09:52:17;5.13;;;4.73;;
1336;SDS011;662;48.814;9.318;2022-07-29T09:54:42;5.47;;;5.00;;
1336;SDS011;662;48.814;9.318;2022-07-29T09:57:09;5.93;;;4.60;;
1336;SDS011;662;48.814;9.318;2022-07-29T10:00:00;5.70;;;5.20;;
1336;SDS011;662;48.814;9.318;2022-07-29T10:02:30;5.70;;;5.20;;
1336;SDS011;662;48.814;9.318;2022-07-29T10:04:57;5.47;;;4.80;;
1336;SDS011;662;48.814;9.318;2022-07-29T10:07:24;5.10;;;4.70;;
1336;SDS011;662;48.814;9.318;2022-07-29T10:09:56;4.80;;;4.40;;
1336;SDS011;662;48.814;9.318;2022-07-29T10:12:23;5.93;;;4.60;;
1336;SDS011;662;48.814;9.318;2022-07-29T10:14:49;4.97;;;4.57;;
1336;SDS011;662;48.814;9.318;2022-07-29T10:17:16;7.33;;;5.37;;
1336;SDS011;662;48.814;9.318;2022-07-29T10:19:42;5.10;;;4.70;;
1336;SDS011;662;48.814;9.318;2022-07-29T10:22:09;5.30;;;4.90;;
1336;SDS011;662;48.814;9.318;2022-07-29T10:24:35;6.23;;;5.23;;
1336;SDS011;662;48.814;9.318;2022-07-29T10:27:03;5.70;;;5.20;;
1336;SDS011;662;48.814;9.318;2022-07-29T10:29:30;5.13;;;4.73;;
1336;SDS011;662;48.814;9.318;2022-07-29T10:37:49;5.87;;;4.93;;
1336;SDS011;662;48.814;9.318;2022-07-29T10:43:31;5.67;;;5.27;;
1336;SDS011;662;48.814;9.318;2022-07-29T10:46:01;6.03;;;5.43;;
1336;SDS011;662;48.814;9.318;2022-07-29T10:48:27;6.50;;;5.50;;
1336;SDS011;662;48.814;9.318;2022-07-29T10:50:58;6.17;;;5.33;;
1336;SDS011;662;48.814;9.318;2022-07-29T10:56:25;7.73;;;5.47;;
1336;SDS011;662;48.814;9.318;2022-07-29T11:01:43;6.20;;;5.80;;
1336;SDS011;662;48.814;9.318;2022-07-29T11:04:09;5.43;;;4.93;;
1336;SDS011;662;48.814;9.318;2022-07-29T11:09:25;8.87;;;5.60;;
1336;SDS011;662;48.814;9.318;2022-07-29T11:11:51;8.13;;;5.77;;
1336;SDS011;662;48.814;9.318;2022-07-29T11:14:18;9.17;;;6.47;;
1336;SDS011;662;48.814;9.318;2022-07-29T11:17:04;7.90;;;7.10;;
1336;SDS011;662;48.814;9.318;2022-07-29T11:19:32;16.47;;;9.40;;
1336;SDS011;662;48.814;9.318;2022-07-29T11:21:58;12.07;;;8.03;;
1336;SDS011;662;48.814;9.318;2022-07-29T11:24:25;9.97;;;7.70;;
1336;SDS011;662;48.814;9.318;2022-07-29T11:29:54;13.23;;;8.97;;
1336;SDS011;662;48.814;9.318;2022-07-29T11:32:24;12.27;;;9.53;;
1336;SDS011;662;48.814;9.318;2022-07-29T11:38:30;10.10;;;9.20;;
1336;SDS011;662;48.814;9.318;2022-07-29T11:43:58;13.93;;;8.73;;
1336;SDS011;662;48.814;9.318;2022-07-29T11:49:18;9.20;;;6.90;;
1336;SDS011;662;48.814;9.318;2022-07-29T11:51:55;6.00;;;5.40;;
1336;SDS011;662;48.814;9.318;2022-07-29T11:54:25;7.93;;;5.40;;
1336;SDS011;662;48.814;9.318;2022-07-29T11:56:58;7.03;;;6.43;;
1336;SDS011;662;48.814;9.318;2022-07-29T11:59:24;7.17;;;6.47;;
1336;SDS011;662;48.814;9.318;2022-07-29T12:01:57;10.40;;;7.17;;
1336;SDS011;662;48.814;9.318;2022-07-29T12:04:25;7.37;;;6.53;;
1336;SDS011;662;48.814;9.318;2022-07-29T12:06:54;5.90;;;5.30;;
1336;SDS011;662;48.814;9.318;2022-07-29T12:09:21;5.30;;;4.80;;
1336;SDS011;662;48.814;9.318;2022-07-29T12:11:48;8.23;;;5.10;;
1336;SDS011;662;48.814;9.318;2022-07-29T12:14:39;5.70;;;5.20;;
1336;SDS011;662;48.814;9.318;2022-07-29T12:17:24;5.00;;;4.50;;
1336;SDS011;662;48.814;9.318;2022-07-29T12:19:55;4.97;;;4.53;;
1336;SDS011;662;48.814;9.318;2022-07-29T12:22:27;4.27;;;3.80;;
1336;SDS011;662;48.814;9.318;2022-07-29T12:24:55;4.87;;;4.07;;
1336;SDS011;662;48.814;9.318;2022-07-29T12:27:25;4.77;;;4.37;;
1336;SDS011;662;48.814;9.318;2022-07-29T12:29:55;4.73;;;4.20;;
1336;SDS011;662;48.814;9.318;2022-07-29T12:32:22;5.23;;;3.90;;
1336;SDS011;662;48.814;9.318;2022-07-29T12:34:49;7.40;;;4.20;;
1336;SDS011;662;48.814;9.318;2022-07-29T12:37:15;4.37;;;3.90;;
1336;SDS011;662;48.814;9.318;2022-07-29T12:39:41;3.87;;;3.57;;
1336;SDS011;662;48.814;9.318;2022-07-29T12:42:11;3.97;;;3.37;;
1336;SDS011;662;48.814;9.318;2022-07-29T12:44:44;5.63;;;4.00;;
1336;SDS011;662;48.814;9.318;2022-07-29T12:47:11;4.47;;;4.00;;
1336;SDS011;662;48.814;9.318;2022-07-29T12:49:37;4.33;;;3.90;;
1336;SDS011;662;48.814;9.318;2022-07-29T12:52:22;3.80;;;3.50;;
1336;SDS011;662;48.814;9.318;2022-07-29T12:54:55;4.17;;;3.80;;
1336;SDS011;662;48.814;9.318;2022-07-29T12:57:21;3.80;;;3.50;;
1336;SDS011;662;48.814;9.318;2022-07-29T13:00:11;3.57;;;3.27;;
1336;SDS011;662;48.814;9.318;2022-07-29T13:02:37;3.97;;;3.67;;
1336;SDS011;662;48.814;9.318;2022-07-29T13:05:06;4.27;;;3.37;;
1336;SDS011;662;48.814;9.318;2022-07-29T13:07:36;3.83;;;3.50;;
1336;SDS011;662;48.814;9.318;2022-07-29T13:10:13;3.77;;;3.47;;
1336;SDS011;662;48.814;9.318;2022-07-29T13:12:39;4.00;;;3.70;;
1336;SDS011;662;48.814;9.318;2022-07-29T13:15:36;3.50;;;3.20;;
1336;SDS011;662;48.814;9.318;2022-07-29T13:20:53;3.90;;;3.60;;
1336;SDS011;662;48.814;9.318;2022-07-29T13:23:19;3.80;;;3.60;;
1336;SDS011;662;48.814;9.318;2022-07-29T13:25:45;4.60;;;4.17;;
1336;SDS011;662;48.814;9.318;2022-07-29T13:28:10;4.10;;;3.80;;
1336;SDS011;662;48.814;9.318;2022-07-29T13:30:36;3.53;;;3.33;;
1336;SDS011;662;48.814;9.318;2022-07-29T13:33:06;3.90;;;3.63;;
1336;SDS011;662;48.814;9.318;2022-07-29T13:35:31;4.10;;;3.70;;
1336;SDS011;662;48.814;9.318;2022-07-29T13:37:57;3.93;;;3.63;;
1336;SDS011;662;48.814;9.318;2022-07-29T13:40:23;6.90;;;4.33;;
1336;SDS011;662;48.814;9.318;2022-07-29T13:42:49;4.70;;;4.30;;
1336;SDS011;662;48.814;9.318;2022-07-29T13:45:15;4.67;;;4.20;;
1336;SDS011;662;48.814;9.318;2022-07-29T13:47:41;7.97;;;5.40;;
1336;SDS011;662;48.814;9.318;2022-07-29T13:50:07;6.97;;;6.27;;
1336;SDS011;662;48.814;9.318;2022-07-29T13:52:35;5.30;;;4.80;;
1336;SDS011;662;48.814;9.318;2022-07-29T13:55:01;5.53;;;5.13;;
1336;SDS011;662;48.814;9.318;2022-07-29T13:57:27;5.70;;;5.30;;
1336;SDS011;662;48.814;9.318;2022-07-29T13:59:53;6.70;;;6.00;;
1336;SDS011;662;48.814;9.318;2022-07-29T14:02:20;6.33;;;5.73;;
1336;SDS011;662;48.814;9.318;2022-07-29T14:04:46;7.00;;;6.40;;
1336;SDS011;662;48.814;9.318;2022-07-29T14:07:11;6.47;;;5.97;;
1336;SDS011;662;48.814;9.318;2022-07-29T14:09:37;6.40;;;5.80;;
1336;SDS011;662;48.814;9.318;2022-07-29T14:12:03;7.80;;;7.00;;
1336;SDS011;662;48.814;9.318;2022-07-29T14:14:29;7.63;;;7.03;;
1336;SDS011;662;48.814;9.318;2022-07-29T14:16:56;7.83;;;7.23;;
1336;SDS011;662;48.814;9.318;2022-07-29T14:19:22;7.43;;;6.60;;
1336;SDS011;662;48.814;9.318;2022-07-29T14:21:47;8.03;;;7.30;;
1336;SDS011;662;48.814;9.318;2022-07-29T14:24:13;7.27;;;6.63;;
1336;SDS011;662;48.814;9.318;2022-07-29T14:26:38;7.13;;;6.40;;
1336;SDS011;662;48.814;9.318;2022-07-29T14:29:04;7.90;;;7.30;;
1336;SDS011;662;48.814;9.318;2022-07-29T14:31:30;7.40;;;6.80;;
1336;SDS011;662;48.814;9.318;2022-07-29T14:33:55;8.30;;;7.60;;
1336;SDS011;662;48.814;9.318;2022-07-29T14:36:21;8.97;;;7.97;;
1336;SDS011;662;48.814;9.318;2022-07-29T14:38:48;9.37;;;7.03;;
1336;SDS011;662;48.814;9.318;2022-07-29T14:41:14;7.60;;;7.00;;
1336;SDS011;662;48.814;9.318;2022-07-29T14:43:40;7.33;;;6.73;;
1336;SDS011;662;48.814;9.318;2022-07-29T14:46:06;7.77;;;6.93;;
1336;SDS011;662;48.814;9.318;2022-07-29T14:48:32;7.63;;;6.93;;
1336;SDS011;662;48.814;9.318;2022-07-29T14:50:58;7.50;;;6.77;;
1336;SDS011;662;48.814;9.318;2022-07-29T14:53:24;7.87;;;7.20;;
1336;SDS011;662;48.814;9.318;2022-07-29T14:55:49;6.50;;;6.00;;
1336;SDS011;662;48.814;9.318;2022-07-29T14:58:15;6.97;;;6.40;;
1336;SDS011;662;48.814;9.318;2022-07-29T15:00:41;7.73;;;7.10;;
1336;SDS011;662;48.814;9.318;2022-07-29T15:03:07;7.37;;;6.73;;
1336;SDS011;662;48.814;9.318;2022-07-29T15:05:35;6.80;;;6.30;;
1336;SDS011;662;48.814;9.318;2022-07-29T15:08:01;7.17;;;6.40;;
1336;SDS011;662;48.814;9.318;2022-07-29T15:10:27;8.03;;;7.00;;
1336;SDS011;662;48.814;9.318;2022-07-29T15:12:53;7.43;;;6.60;;
1336;SDS011;662;48.814;9.318;2022-07-29T15:15:19;7.50;;;6.87;;
1336;SDS011;662;48.814;9.318;2022-07-29T15:17:45;8.07;;;7.37;;
1336;SDS011;662;48.814;9.318;2022-07-29T15:20:11;8.57;;;7.87;;
1336;SDS011;662;48.814;9.318;2022-07-29T15:22:37;7.90;;;7.20;;
1336;SDS011;662;48.814;9.318;2022-07-29T15:25:03;8.60;;;7.03;;
1336;SDS011;662;48.814;9.318;2022-07-29T15:27:29;7.80;;;7.10;;
1336;SDS011;662;48.814;9.318;2022-07-29T15:29:55;6.80;;;6.30;;
1336;SDS011;662;48.814;9.318;2022-07-29T15:32:21;7.50;;;6.80;;
1336;SDS011;662;48.814;9.318;2022-07-29T15:34:47;7.00;;;6.50;;
1336;SDS011;662;48.814;9.318;2022-07-29T15:37:12;7.50;;;6.90;;
1336;SDS011;662;48.814;9.318;2022-07-29T15:39:38;7.23;;;6.53;;
1336;SDS011;662;48.814;9.318;2022-07-29T15:42:03;7.53;;;6.73;;
1336;SDS011;662;48.814;9.318;2022-07-29T15:44:33;7.30;;;6.70;;
1336;SDS011;662;48.814;9.318;2022-07-29T15:46:59;8.80;;;6.50;;
1336;SDS011;662;48.814;9.318;2022-07-29T15:49:31;7.10;;;6.57;;
1336;SDS011;662;48.814;9.318;2022-07-29T15:52:04;7.00;;;6.43;;
1336;SDS011;662;48.814;9.318;2022-07-29T15:54:32;6.57;;;6.07;;
1336;SDS011;662;48.814;9.318;2022-07-29T15:56:59;7.13;;;6.50;;
1336;SDS011;662;48.814;9.318;2022-07-29T15:59:25;6.13;;;5.73;;
1336;SDS011;662;48.814;9.318;2022-07-29T16:01:51;6.40;;;5.90;;
1336;SDS011;662;48.814;9.318;2022-07-29T16:04:17;6.00;;;5.50;;
1336;SDS011;662;48.814;9.318;2022-07-29T16:06:43;8.90;;;6.03;;
1336;SDS011;662;48.814;9.318;2022-07-29T16:09:15;6.37;;;5.87;;
1336;SDS011;662;48.814;9.318;2022-07-29T16:11:42;7.23;;;6.00;;
1336;SDS011;662;48.814;9.318;2022-07-29T16:14:11;6.70;;;6.20;;
1336;SDS011;662;48.814;9.318;2022-07-29T16:16:37;6.83;;;6.33;;
1336;SDS011;662;48.814;9.318;2022-07-29T16:19:07;6.93;;;5.67;;
1336;SDS011;662;48.814;9.318;2022-07-29T16:21:36;6.00;;;5.40;;
1336;SDS011;662;48.814;9.318;2022-07-29T16:24:04;6.73;;;6.13;;
1336;SDS011;662;48.814;9.318;2022-07-29T16:26:36;7.53;;;5.93;;
1336;SDS011;662;48.814;9.318;2022-07-29T16:29:02;7.57;;;6.23;;
1336;SDS011;662;48.814;9.318;2022-07-29T16:31:29;6.73;;;6.13;;
1336;SDS011;662;48.814;9.318;2022-07-29T16:33:55;6.90;;;6.40;;
1336;SDS011;662;48.814;9.318;2022-07-29T16:36:21;6.73;;;6.13;;
1336;SDS011;662;48.814;9.318;2022-07-29T16:38:47;6.57;;;5.97;;
1336;SDS011;662;48.814;9.318;2022-07-29T16:41:16;7.50;;;6.40;;
1336;SDS011;662;48.814;9.318;2022-07-29T16:43:43;6.47;;;5.80;;
1336;SDS011;662;48.814;9.318;2022-07-29T16:46:09;8.30;;;5.50;;